sensor_id;sensor_type;location;lat;lon;timestamp;pressure;altitude;pressure_sealevel;temperature;humidity
41596;BME280;27283;52.504;13.358;2022-10-17T00:00:57;101862.72;;;15.38;77.53
41596;BME280;27283;52.504;13.358;2022-10-17T00:03:35;101858.81;;;15.24;78.41
41596;BME280;27283;52.504;13.358;2022-10-17T00:06:12;101850.88;;;15.31;78.29
41596;BME280;27283;52.504;13.358;2022-10-17T00:08:45;101855.25;;;15.24;78.16
41596;BME280;27283;52.504;13.358;2022-10-17T00:11:22;101863.03;;;15.44;77.67
41596;BME280;27283;52.504;13.358;2022-10-17T00:13:56;101870.00;;;15.38;77.52
41596;BME280;27283;52.504;13.358;2022-10-17T00:16:30;101859.84;;;15.40;77.57
41596;BME280;27283;52.504;13.358;2022-10-17T00:19:06;101850.19;;;15.21;77.98
41596;BME280;27283;52.504;13.358;2022-10-17T00:21:41;101832.75;;;15.23;78.73
41596;BME280;27283;52.504;13.358;2022-10-17T00:24:13;101836.97;;;15.34;78.10
41596;BME280;27283;52.504;13.358;2022-10-17T00:26:52;101845.44;;;15.48;77.69
41596;BME280;27283;52.504;13.358;2022-10-17T00:29:24;101862.38;;;15.33;77.99
41596;BME280;27283;52.504;13.358;2022-10-17T00:31:57;101858.97;;;15.39;78.97
41596;BME280;27283;52.504;13.358;2022-10-17T00:34:30;101855.94;;;15.10;80.01
41596;BME280;27283;52.504;13.358;2022-10-17T00:37:02;101846.44;;;14.89;81.33
41596;BME280;27283;52.504;13.358;2022-10-17T00:39:34;101847.66;;;14.95;81.33
41596;BME280;27283;52.504;13.358;2022-10-17T00:42:11;101836.47;;;15.06;79.61
41596;BME280;27283;52.504;13.358;2022-10-17T00:45:00;101846.13;;;15.09;80.22
41596;BME280;27283;52.504;13.358;2022-10-17T00:47:34;101852.41;;;15.17;79.71
41596;BME280;27283;52.504;13.358;2022-10-17T00:50:08;101848.81;;;15.17;80.43
41596;BME280;27283;52.504;13.358;2022-10-17T00:52:42;101859.31;;;15.20;79.93
41596;BME280;27283;52.504;13.358;2022-10-17T00:55:19;101853.91;;;15.45;79.04
41596;BME280;27283;52.504;13.358;2022-10-17T00:57:55;101859.66;;;15.33;79.61
41596;BME280;27283;52.504;13.358;2022-10-17T01:00:27;101868.31;;;15.20;81.18
41596;BME280;27283;52.504;13.358;2022-10-17T01:03:00;101865.78;;;15.19;81.07
41596;BME280;27283;52.504;13.358;2022-10-17T01:05:32;101859.00;;;15.31;80.77
41596;BME280;27283;52.504;13.358;2022-10-17T01:08:05;101854.25;;;15.33;80.67
41596;BME280;27283;52.504;13.358;2022-10-17T01:10:46;101843.41;;;15.33;81.20
41596;BME280;27283;52.504;13.358;2022-10-17T01:13:31;101843.22;;;15.35;80.74
41596;BME280;27283;52.504;13.358;2022-10-17T01:16:12;101849.19;;;15.38;81.16
41596;BME280;27283;52.504;13.358;2022-10-17T01:18:52;101843.56;;;15.15;81.86
41596;BME280;27283;52.504;13.358;2022-10-17T01:21:40;101841.03;;;15.14;82.79
41596;BME280;27283;52.504;13.358;2022-10-17T01:24:42;101836.47;;;15.06;83.26
41596;BME280;27283;52.504;13.358;2022-10-17T01:27:40;101847.13;;;15.07;83.62
41596;BME280;27283;52.504;13.358;2022-10-17T01:33:34;101828.34;;;14.98;84.48
41596;BME280;27283;52.504;13.358;2022-10-17T01:36:14;101826.50;;;14.90;85.20
41596;BME280;27283;52.504;13.358;2022-10-17T01:38:49;101829.69;;;15.02;84.78
41596;BME280;27283;52.504;13.358;2022-10-17T01:41:30;101821.75;;;15.09;84.50
41596;BME280;27283;52.504;13.358;2022-10-17T01:44:08;101832.41;;;14.94;85.31
41596;BME280;27283;52.504;13.358;2022-10-17T01:46:44;101817.69;;;15.04;85.69
41596;BME280;27283;52.504;13.358;2022-10-17T01:49:24;101821.25;;;14.97;85.82
41596;BME280;27283;52.504;13.358;2022-10-17T01:52:00;101827.84;;;14.86;86.80
41596;BME280;27283;52.504;13.358;2022-10-17T01:54:39;101823.78;;;14.74;88.06
41596;BME280;27283;52.504;13.358;2022-10-17T01:57:16;101816.78;;;14.63;89.17
41596;BME280;27283;52.504;13.358;2022-10-17T01:59:57;101820.66;;;14.60;90.03
41596;BME280;27283;52.504;13.358;2022-10-17T02:02:37;101826.78;;;14.62;89.81
41596;BME280;27283;52.504;13.358;2022-10-17T02:05:12;101823.72;;;14.65;90.30
41596;BME280;27283;52.504;13.358;2022-10-17T02:07:44;101822.38;;;14.61;90.37
41596;BME280;27283;52.504;13.358;2022-10-17T02:10:20;101821.72;;;14.67;90.45
41596;BME280;27283;52.504;13.358;2022-10-17T02:16:11;101825.78;;;14.63;90.07
41596;BME280;27283;52.504;13.358;2022-10-17T02:19:00;101818.28;;;14.57;90.35
41596;BME280;27283;52.504;13.358;2022-10-17T02:21:45;101823.66;;;14.41;91.45
41596;BME280;27283;52.504;13.358;2022-10-17T02:24:29;101820.13;;;14.48;91.46
41596;BME280;27283;52.504;13.358;2022-10-17T02:27:07;101821.34;;;14.54;91.04
41596;BME280;27283;52.504;13.358;2022-10-17T02:29:46;101826.22;;;14.50;91.65
41596;BME280;27283;52.504;13.358;2022-10-17T02:32:23;101825.19;;;14.43;91.77
41596;BME280;27283;52.504;13.358;2022-10-17T02:34:57;101809.44;;;14.30;93.58
41596;BME280;27283;52.504;13.358;2022-10-17T02:37:33;101813.84;;;14.40;93.09
41596;BME280;27283;52.504;13.358;2022-10-17T02:40:08;101811.34;;;14.54;93.25
41596;BME280;27283;52.504;13.358;2022-10-17T02:42:43;101812.34;;;14.53;93.78
41596;BME280;27283;52.504;13.358;2022-10-17T02:45:17;101804.19;;;14.37;94.34
41596;BME280;27283;52.504;13.358;2022-10-17T02:47:53;101813.25;;;14.62;93.60
41596;BME280;27283;52.504;13.358;2022-10-17T02:50:32;101810.53;;;14.62;93.54
41596;BME280;27283;52.504;13.358;2022-10-17T02:53:13;101808.00;;;14.61;93.71
41596;BME280;27283;52.504;13.358;2022-10-17T02:55:52;101805.09;;;14.54;94.48
41596;BME280;27283;52.504;13.358;2022-10-17T02:58:29;101802.06;;;14.57;94.49
41596;BME280;27283;52.504;13.358;2022-10-17T03:01:03;101804.28;;;14.70;93.64
41596;BME280;27283;52.504;13.358;2022-10-17T03:03:35;101804.56;;;14.50;95.56
41596;BME280;27283;52.504;13.358;2022-10-17T03:06:06;101804.06;;;14.47;96.14
41596;BME280;27283;52.504;13.358;2022-10-17T03:08:39;101802.72;;;14.51;96.05
41596;BME280;27283;52.504;13.358;2022-10-17T03:11:11;101807.06;;;14.35;97.32
41596;BME280;27283;52.504;13.358;2022-10-17T03:13:42;101800.13;;;14.33;98.08
41596;BME280;27283;52.504;13.358;2022-10-17T03:16:14;101805.72;;;14.40;97.45
41596;BME280;27283;52.504;13.358;2022-10-17T03:18:45;101813.25;;;14.62;96.34
41596;BME280;27283;52.504;13.358;2022-10-17T03:21:18;101816.44;;;14.66;95.70
41596;BME280;27283;52.504;13.358;2022-10-17T03:23:52;101810.38;;;14.64;96.71
41596;BME280;27283;52.504;13.358;2022-10-17T03:26:24;101803.38;;;14.45;97.72
41596;BME280;27283;52.504;13.358;2022-10-17T03:28:57;101805.22;;;14.44;97.90
41596;BME280;27283;52.504;13.358;2022-10-17T03:31:28;101801.03;;;14.50;98.00
41596;BME280;27283;52.504;13.358;2022-10-17T03:34:01;101788.16;;;14.52;97.81
41596;BME280;27283;52.504;13.358;2022-10-17T03:36:33;101790.44;;;14.81;96.34
41596;BME280;27283;52.504;13.358;2022-10-17T03:39:07;101796.50;;;14.67;97.35
41596;BME280;27283;52.504;13.358;2022-10-17T03:41:39;101803.09;;;14.81;96.92
41596;BME280;27283;52.504;13.358;2022-10-17T03:44:10;101791.44;;;14.88;96.38
41596;BME280;27283;52.504;13.358;2022-10-17T03:46:42;101795.31;;;14.61;97.64
41596;BME280;27283;52.504;13.358;2022-10-17T03:49:13;101789.25;;;14.67;97.58
41596;BME280;27283;52.504;13.358;2022-10-17T03:51:45;101794.97;;;14.64;97.59
41596;BME280;27283;52.504;13.358;2022-10-17T03:54:20;101791.78;;;14.69;98.16
41596;BME280;27283;52.504;13.358;2022-10-17T03:56:51;101794.59;;;14.59;99.02
41596;BME280;27283;52.504;13.358;2022-10-17T03:59:24;101782.78;;;14.68;98.36
41596;BME280;27283;52.504;13.358;2022-10-17T04:01:56;101785.34;;;14.62;98.92
41596;BME280;27283;52.504;13.358;2022-10-17T04:04:27;101785.19;;;14.63;99.17
41596;BME280;27283;52.504;13.358;2022-10-17T04:06:59;101781.78;;;14.61;99.37
41596;BME280;27283;52.504;13.358;2022-10-17T04:09:33;101783.63;;;14.61;99.46
41596;BME280;27283;52.504;13.358;2022-10-17T04:12:05;101772.63;;;14.54;99.61
41596;BME280;27283;52.504;13.358;2022-10-17T04:14:37;101777.38;;;14.68;98.60
41596;BME280;27283;52.504;13.358;2022-10-17T04:17:08;101776.19;;;14.63;98.97
41596;BME280;27283;52.504;13.358;2022-10-17T04:19:40;101770.25;;;14.59;99.68
41596;BME280;27283;52.504;13.358;2022-10-17T04:22:11;101764.97;;;14.41;100.00
41596;BME280;27283;52.504;13.358;2022-10-17T04:24:46;101777.84;;;14.47;100.00
41596;BME280;27283;52.504;13.358;2022-10-17T04:27:18;101769.53;;;14.49;100.00
41596;BME280;27283;52.504;13.358;2022-10-17T04:29:50;101777.00;;;14.55;99.69
41596;BME280;27283;52.504;13.358;2022-10-17T04:32:22;101778.00;;;14.46;100.00
41596;BME280;27283;52.504;13.358;2022-10-17T04:34:53;101773.47;;;14.46;100.00
41596;BME280;27283;52.504;13.358;2022-10-17T04:37:28;101770.25;;;14.51;100.00
41596;BME280;27283;52.504;13.358;2022-10-17T04:40:02;101774.28;;;14.47;100.00
41596;BME280;27283;52.504;13.358;2022-10-17T04:42:34;101774.47;;;14.45;100.00
41596;BME280;27283;52.504;13.358;2022-10-17T04:45:12;101771.91;;;14.44;100.00
41596;BME280;27283;52.504;13.358;2022-10-17T04:47:43;101778.53;;;14.49;100.00
41596;BME280;27283;52.504;13.358;2022-10-17T04:50:15;101775.66;;;14.51;100.00
41596;BME280;27283;52.504;13.358;2022-10-17T04:52:50;101780.03;;;14.52;100.00
41596;BME280;27283;52.504;13.358;2022-10-17T04:55:26;101777.13;;;14.37;100.00
41596;BME280;27283;52.504;13.358;2022-10-17T04:57:59;101781.56;;;14.46;100.00
41596;BME280;27283;52.504;13.358;2022-10-17T05:00:32;101781.19;;;14.41;100.00
41596;BME280;27283;52.504;13.358;2022-10-17T05:03:04;101777.41;;;14.85;98.76
41596;BME280;27283;52.504;13.358;2022-10-17T05:05:40;101772.59;;;14.38;100.00
41596;BME280;27283;52.504;13.358;2022-10-17T05:08:13;101777.66;;;14.41;100.00
41596;BME280;27283;52.504;13.358;2022-10-17T05:10:51;101768.88;;;14.47;100.00
41596;BME280;27283;52.504;13.358;2022-10-17T05:13:23;101774.47;;;14.45;100.00
41596;BME280;27283;52.504;13.358;2022-10-17T05:15:57;101778.66;;;14.31;100.00
41596;BME280;27283;52.504;13.358;2022-10-17T05:18:29;101780.50;;;14.31;100.00
41596;BME280;27283;52.504;13.358;2022-10-17T05:21:01;101782.72;;;14.35;100.00
41596;BME280;27283;52.504;13.358;2022-10-17T05:23:33;101784.19;;;14.22;100.00
41596;BME280;27283;52.504;13.358;2022-10-17T05:26:11;101780.66;;;14.29;100.00
41596;BME280;27283;52.504;13.358;2022-10-17T05:28:43;101784.19;;;14.22;100.00
41596;BME280;27283;52.504;13.358;2022-10-17T05:31:14;101777.50;;;14.42;100.00
41596;BME280;27283;52.504;13.358;2022-10-17T05:33:46;101778.50;;;14.33;100.00
41596;BME280;27283;52.504;13.358;2022-10-17T05:36:23;101772.38;;;14.31;100.00
41596;BME280;27283;52.504;13.358;2022-10-17T05:38:55;101773.78;;;14.51;100.00
41596;BME280;27283;52.504;13.358;2022-10-17T05:41:29;101784.25;;;14.30;100.00
41596;BME280;27283;52.504;13.358;2022-10-17T05:44:01;101778.66;;;14.31;100.00
41596;BME280;27283;52.504;13.358;2022-10-17T05:46:36;101790.16;;;14.25;100.00
41596;BME280;27283;52.504;13.358;2022-10-17T05:49:08;101781.31;;;14.23;100.00
41596;BME280;27283;52.504;13.358;2022-10-17T05:51:59;101782.53;;;14.21;100.00
41596;BME280;27283;52.504;13.358;2022-10-17T05:54:31;101787.91;;;14.12;100.00
41596;BME280;27283;52.504;13.358;2022-10-17T05:57:06;101781.69;;;14.28;100.00
41596;BME280;27283;52.504;13.358;2022-10-17T05:59:39;101786.34;;;14.61;100.00
41596;BME280;27283;52.504;13.358;2022-10-17T06:02:11;101785.44;;;14.52;100.00
41596;BME280;27283;52.504;13.358;2022-10-17T06:04:43;101779.59;;;14.81;100.00
41596;BME280;27283;52.504;13.358;2022-10-17T06:07:16;101795.50;;;14.68;100.00
41596;BME280;27283;52.504;13.358;2022-10-17T06:09:49;101800.75;;;14.69;100.00
41596;BME280;27283;52.504;13.358;2022-10-17T06:12:24;101808.19;;;14.84;99.81
41596;BME280;27283;52.504;13.358;2022-10-17T06:14:57;101814.81;;;14.81;100.00
41596;BME280;27283;52.504;13.358;2022-10-17T06:17:29;101813.28;;;15.03;97.69
41596;BME280;27283;52.504;13.358;2022-10-17T06:20:02;101814.97;;;15.04;98.02
41596;BME280;27283;52.504;13.358;2022-10-17T06:22:35;101831.72;;;15.00;97.69
41596;BME280;27283;52.504;13.358;2022-10-17T06:25:08;101827.16;;;14.92;98.70
41596;BME280;27283;52.504;13.358;2022-10-17T06:27:43;101835.63;;;15.05;97.30
41596;BME280;27283;52.504;13.358;2022-10-17T06:30:16;101835.47;;;15.07;97.09
41596;BME280;27283;52.504;13.358;2022-10-17T06:32:48;101836.97;;;15.01;97.27
41596;BME280;27283;52.504;13.358;2022-10-17T06:35:21;101835.47;;;14.91;98.01
41596;BME280;27283;52.504;13.358;2022-10-17T06:37:53;101840.03;;;14.98;97.68
41596;BME280;27283;52.504;13.358;2022-10-17T06:40:25;101843.75;;;15.05;97.83
41596;BME280;27283;52.504;13.358;2022-10-17T06:43:00;101837.84;;;15.27;95.78
41596;BME280;27283;52.504;13.358;2022-10-17T06:45:32;101843.56;;;14.99;97.57
41596;BME280;27283;52.504;13.358;2022-10-17T06:48:05;101843.41;;;14.92;97.78
41596;BME280;27283;52.504;13.358;2022-10-17T06:50:36;101842.91;;;15.05;97.04
41596;BME280;27283;52.504;13.358;2022-10-17T06:53:08;101846.47;;;15.14;96.95
41596;BME280;27283;52.504;13.358;2022-10-17T06:55:40;101848.81;;;15.17;96.22
41596;BME280;27283;52.504;13.358;2022-10-17T06:58:14;101838.84;;;15.26;96.47
41596;BME280;27283;52.504;13.358;2022-10-17T07:00:46;101836.78;;;15.28;95.85
41596;BME280;27283;52.504;13.358;2022-10-17T07:03:18;101831.06;;;15.14;96.59
41596;BME280;27283;52.504;13.358;2022-10-17T07:05:52;101839.69;;;15.26;96.18
41596;BME280;27283;52.504;13.358;2022-10-17T07:08:24;101829.69;;;15.35;95.87
41596;BME280;27283;52.504;13.358;2022-10-17T07:10:56;101837.28;;;15.56;94.55
41596;BME280;27283;52.504;13.358;2022-10-17T07:13:31;101843.72;;;15.63;93.00
41596;BME280;27283;52.504;13.358;2022-10-17T07:16:07;101846.78;;;15.44;94.46
41596;BME280;27283;52.504;13.358;2022-10-17T07:18:39;101851.19;;;15.61;93.47
41596;BME280;27283;52.504;13.358;2022-10-17T07:21:11;101850.97;;;15.79;92.92
41596;BME280;27283;52.504;13.358;2022-10-17T07:23:42;101855.38;;;15.88;91.63
41596;BME280;27283;52.504;13.358;2022-10-17T07:26:18;101860.53;;;16.15;90.45
41596;BME280;27283;52.504;13.358;2022-10-17T07:28:54;101865.09;;;16.54;87.02
41596;BME280;27283;52.504;13.358;2022-10-17T07:31:26;101859.03;;;16.75;86.75
41596;BME280;27283;52.504;13.358;2022-10-17T07:33:58;101864.03;;;16.63;86.32
41596;BME280;27283;52.504;13.358;2022-10-17T07:36:31;101861.69;;;16.91;85.36
41596;BME280;27283;52.504;13.358;2022-10-17T07:39:04;101857.22;;;16.67;86.46
41596;BME280;27283;52.504;13.358;2022-10-17T07:41:36;101859.63;;;16.93;84.96
41596;BME280;27283;52.504;13.358;2022-10-17T07:44:12;101862.59;;;16.75;85.45
41596;BME280;27283;52.504;13.358;2022-10-17T07:46:45;101857.63;;;16.87;84.94
41596;BME280;27283;52.504;13.358;2022-10-17T07:49:17;101862.59;;;16.75;86.18
41596;BME280;27283;52.504;13.358;2022-10-17T07:51:50;101857.22;;;16.98;84.59
41596;BME280;27283;52.504;13.358;2022-10-17T07:54:23;101866.25;;;17.14;83.65
41596;BME280;27283;52.504;13.358;2022-10-17T07:56:55;101867.97;;;17.30;82.80
41596;BME280;27283;52.504;13.358;2022-10-17T07:59:32;101868.34;;;17.27;82.23
41596;BME280;27283;52.504;13.358;2022-10-17T08:02:05;101866.06;;;17.53;81.61
41596;BME280;27283;52.504;13.358;2022-10-17T08:04:38;101860.19;;;17.50;81.84
41596;BME280;27283;52.504;13.358;2022-10-17T08:07:11;101866.47;;;17.65;80.87
41596;BME280;27283;52.504;13.358;2022-10-17T08:09:52;101860.56;;;17.77;79.93
41596;BME280;27283;52.504;13.358;2022-10-17T08:12:25;101863.63;;;18.12;78.14
41596;BME280;27283;52.504;13.358;2022-10-17T08:15:04;101869.59;;;18.07;77.77
41596;BME280;27283;52.504;13.358;2022-10-17T08:17:38;101870.16;;;18.17;77.59
41596;BME280;27283;52.504;13.358;2022-10-17T08:20:10;101868.41;;;18.61;76.85
41596;BME280;27283;52.504;13.358;2022-10-17T08:22:50;101860.91;;;18.63;76.09
41596;BME280;27283;52.504;13.358;2022-10-17T08:25:22;101866.84;;;18.73;75.07
41596;BME280;27283;52.504;13.358;2022-10-17T08:27:54;101868.97;;;18.93;74.45
41596;BME280;27283;52.504;13.358;2022-10-17T08:30:28;101868.91;;;19.08;73.71
41596;BME280;27283;52.504;13.358;2022-10-17T08:33:00;101867.97;;;19.44;72.26
41596;BME280;27283;52.504;13.358;2022-10-17T08:35:31;101861.28;;;19.75;70.16
41596;BME280;27283;52.504;13.358;2022-10-17T08:38:03;101850.84;;;20.68;67.49
41596;BME280;27283;52.504;13.358;2022-10-17T08:40:40;101862.47;;;21.37;64.37
41596;BME280;27283;52.504;13.358;2022-10-17T08:43:27;101858.97;;;22.16;60.26
41596;BME280;27283;52.504;13.358;2022-10-17T08:46:07;101863.63;;;22.99;58.28
41596;BME280;27283;52.504;13.358;2022-10-17T08:48:41;101851.59;;;23.32;57.26
41596;BME280;27283;52.504;13.358;2022-10-17T08:51:16;101848.19;;;23.55;55.67
41596;BME280;27283;52.504;13.358;2022-10-17T08:53:53;101851.00;;;24.29;53.87
41596;BME280;27283;52.504;13.358;2022-10-17T08:56:32;101852.19;;;24.52;52.97
41596;BME280;27283;52.504;13.358;2022-10-17T08:59:25;101842.88;;;24.83;52.46
41596;BME280;27283;52.504;13.358;2022-10-17T09:02:02;101853.50;;;24.80;51.82
41596;BME280;27283;52.504;13.358;2022-10-17T09:04:47;101848.06;;;24.91;51.50
41596;BME280;27283;52.504;13.358;2022-10-17T09:07:26;101849.50;;;25.06;51.91
41596;BME280;27283;52.504;13.358;2022-10-17T09:10:07;101850.59;;;25.17;52.43
41596;BME280;27283;52.504;13.358;2022-10-17T09:12:48;101853.56;;;24.91;51.24
41596;BME280;27283;52.504;13.358;2022-10-17T09:15:34;101854.50;;;24.85;52.22
41596;BME280;27283;52.504;13.358;2022-10-17T09:18:15;101853.59;;;25.03;51.40
41596;BME280;27283;52.504;13.358;2022-10-17T09:20:53;101856.16;;;25.40;50.59
41596;BME280;27283;52.504;13.358;2022-10-17T09:23:29;101857.63;;;25.67;48.11
41596;BME280;27283;52.504;13.358;2022-10-17T09:26:08;101861.44;;;25.77;48.87
41596;BME280;27283;52.504;13.358;2022-10-17T09:28:42;101853.84;;;26.08;47.38
41596;BME280;27283;52.504;13.358;2022-10-17T09:31:21;101845.50;;;26.03;46.82
41596;BME280;27283;52.504;13.358;2022-10-17T09:34:00;101839.41;;;26.30;46.96
41596;BME280;27283;52.504;13.358;2022-10-17T09:36:34;101839.88;;;25.74;47.20
41596;BME280;27283;52.504;13.358;2022-10-17T09:39:12;101835.38;;;26.49;46.96
41596;BME280;27283;52.504;13.358;2022-10-17T09:41:48;101841.81;;;26.84;46.09
41596;BME280;27283;52.504;13.358;2022-10-17T09:44:22;101831.09;;;26.01;47.08
41596;BME280;27283;52.504;13.358;2022-10-17T09:47:13;101835.59;;;25.43;47.92
41596;BME280;27283;52.504;13.358;2022-10-17T09:49:50;101841.28;;;26.00;48.44
41596;BME280;27283;52.504;13.358;2022-10-17T09:52:28;101837.31;;;25.96;47.85
41596;BME280;27283;52.504;13.358;2022-10-17T09:55:03;101834.75;;;26.30;45.93
41596;BME280;27283;52.504;13.358;2022-10-17T09:57:52;101836.59;;;26.01;46.28
41596;BME280;27283;52.504;13.358;2022-10-17T10:00:27;101826.50;;;26.18;47.22
41596;BME280;27283;52.504;13.358;2022-10-17T10:03:12;101837.38;;;26.25;47.14
41596;BME280;27283;52.504;13.358;2022-10-17T10:06:04;101822.56;;;26.43;45.82
41596;BME280;27283;52.504;13.358;2022-10-17T10:08:46;101824.13;;;26.10;45.89
41596;BME280;27283;52.504;13.358;2022-10-17T10:11:23;101826.47;;;26.59;46.64
41596;BME280;27283;52.504;13.358;2022-10-17T10:14:10;101833.91;;;27.04;45.53
41596;BME280;27283;52.504;13.358;2022-10-17T10:16:43;101832.81;;;27.05;43.92
41596;BME280;27283;52.504;13.358;2022-10-17T10:19:20;101829.13;;;27.00;44.03
41596;BME280;27283;52.504;13.358;2022-10-17T10:22:01;101828.84;;;26.67;44.85
41596;BME280;27283;52.504;13.358;2022-10-17T10:24:33;101837.56;;;26.07;46.53
41596;BME280;27283;52.504;13.358;2022-10-17T10:27:05;101830.22;;;26.24;46.00
41596;BME280;27283;52.504;13.358;2022-10-17T10:29:48;101826.47;;;26.30;46.48
41596;BME280;27283;52.504;13.358;2022-10-17T10:32:22;101839.56;;;26.81;45.28
41596;BME280;27283;52.504;13.358;2022-10-17T10:34:58;101839.13;;;26.72;44.79
41596;BME280;27283;52.504;13.358;2022-10-17T10:37:37;101837.22;;;26.90;44.86
41596;BME280;27283;52.504;13.358;2022-10-17T10:40:16;101828.13;;;26.89;44.84
41596;BME280;27283;52.504;13.358;2022-10-17T10:42:50;101837.84;;;27.09;43.82
41596;BME280;27283;52.504;13.358;2022-10-17T10:45:25;101831.47;;;27.98;42.69
41596;BME280;27283;52.504;13.358;2022-10-17T10:48:32;101832.03;;;28.00;41.77
41596;BME280;27283;52.504;13.358;2022-10-17T10:51:16;101823.88;;;27.71;41.79
41596;BME280;27283;52.504;13.358;2022-10-17T10:53:57;101815.13;;;27.57;41.93
41596;BME280;27283;52.504;13.358;2022-10-17T10:56:38;101807.19;;;27.83;42.69
41596;BME280;27283;52.504;13.358;2022-10-17T10:59:17;101805.19;;;27.79;43.23
41596;BME280;27283;52.504;13.358;2022-10-17T11:01:58;101806.75;;;27.69;41.82
41596;BME280;27283;52.504;13.358;2022-10-17T11:04:38;101809.47;;;27.13;42.63
41596;BME280;27283;52.504;13.358;2022-10-17T11:07:19;101822.25;;;26.85;43.02
41596;BME280;27283;52.504;13.358;2022-10-17T11:09:59;101821.84;;;27.62;42.12
41596;BME280;27283;52.504;13.358;2022-10-17T11:12:36;101807.63;;;27.02;42.17
41596;BME280;27283;52.504;13.358;2022-10-17T11:15:18;101801.75;;;26.35;43.27
41596;BME280;27283;52.504;13.358;2022-10-17T11:17:57;101790.66;;;26.93;42.62
41596;BME280;27283;52.504;13.358;2022-10-17T11:20:37;101790.81;;;27.03;42.24
41596;BME280;27283;52.504;13.358;2022-10-17T11:23:16;101795.91;;;27.29;42.11
41596;BME280;27283;52.504;13.358;2022-10-17T11:25:56;101790.06;;;26.74;43.02
41596;BME280;27283;52.504;13.358;2022-10-17T11:28:32;101789.47;;;26.72;43.07
41596;BME280;27283;52.504;13.358;2022-10-17T11:31:08;101788.72;;;26.77;43.07
41596;BME280;27283;52.504;13.358;2022-10-17T11:33:46;101786.78;;;25.91;45.27
41596;BME280;27283;52.504;13.358;2022-10-17T11:36:27;101790.13;;;26.05;44.68
41596;BME280;27283;52.504;13.358;2022-10-17T11:39:04;101784.88;;;25.79;44.96
41596;BME280;27283;52.504;13.358;2022-10-17T11:41:42;101790.09;;;25.40;45.82
41596;BME280;27283;52.504;13.358;2022-10-17T11:44:20;101790.69;;;25.31;46.64
41596;BME280;27283;52.504;13.358;2022-10-17T11:46:57;101788.88;;;25.48;46.41
41596;BME280;27283;52.504;13.358;2022-10-17T11:49:34;101788.41;;;25.39;46.46
41596;BME280;27283;52.504;13.358;2022-10-17T11:52:21;101782.69;;;25.93;46.06
41596;BME280;27283;52.504;13.358;2022-10-17T11:55:19;101785.38;;;25.76;45.60
41596;BME280;27283;52.504;13.358;2022-10-17T11:58:04;101786.91;;;25.84;45.92
41596;BME280;27283;52.504;13.358;2022-10-17T12:00:54;101781.72;;;25.35;46.50
41596;BME280;27283;52.504;13.358;2022-10-17T12:03:51;101779.66;;;25.54;46.14
41596;BME280;27283;52.504;13.358;2022-10-17T12:06:42;101780.84;;;25.58;46.64
41596;BME280;27283;52.504;13.358;2022-10-17T12:09:25;101780.28;;;25.33;46.52
41596;BME280;27283;52.504;13.358;2022-10-17T12:12:07;101787.72;;;25.32;46.83
41596;BME280;27283;52.504;13.358;2022-10-17T12:14:46;101780.00;;;25.10;47.13
41596;BME280;27283;52.504;13.358;2022-10-17T12:17:27;101774.25;;;25.12;46.85
41596;BME280;27283;52.504;13.358;2022-10-17T12:20:26;101769.50;;;25.55;46.23
41596;BME280;27283;52.504;13.358;2022-10-17T12:25:53;101768.19;;;25.45;46.23
41596;BME280;27283;52.504;13.358;2022-10-17T12:28:33;101769.09;;;25.63;46.92
41596;BME280;27283;52.504;13.358;2022-10-17T12:31:22;101758.94;;;25.28;46.75
41596;BME280;27283;52.504;13.358;2022-10-17T12:34:04;101754.41;;;25.22;47.47
41596;BME280;27283;52.504;13.358;2022-10-17T12:36:37;101756.09;;;25.35;46.73
41596;BME280;27283;52.504;13.358;2022-10-17T12:42:31;101747.69;;;24.94;47.84
41596;BME280;27283;52.504;13.358;2022-10-17T12:48:11;101754.06;;;25.06;48.28
41596;BME280;27283;52.504;13.358;2022-10-17T12:51:02;101759.91;;;25.10;47.84
41596;BME280;27283;52.504;13.358;2022-10-17T12:53:57;101757.84;;;24.93;48.45
41596;BME280;27283;52.504;13.358;2022-10-17T12:56:35;101753.31;;;24.87;48.09
41596;BME280;27283;52.504;13.358;2022-10-17T12:59:13;101747.22;;;25.09;48.33
41596;BME280;27283;52.504;13.358;2022-10-17T13:01:48;101745.56;;;25.08;47.78
41596;BME280;27283;52.504;13.358;2022-10-17T13:04:24;101740.75;;;24.91;48.32
41596;BME280;27283;52.504;13.358;2022-10-17T13:06:58;101736.69;;;24.94;48.48
41596;BME280;27283;52.504;13.358;2022-10-17T13:09:33;101738.00;;;24.91;48.58
41596;BME280;27283;52.504;13.358;2022-10-17T13:12:11;101734.66;;;25.01;48.26
41596;BME280;27283;52.504;13.358;2022-10-17T13:14:45;101733.47;;;24.97;48.74
41596;BME280;27283;52.504;13.358;2022-10-17T13:17:23;101729.88;;;25.08;48.66
41596;BME280;27283;52.504;13.358;2022-10-17T13:19:59;101740.06;;;25.08;49.09
41596;BME280;27283;52.504;13.358;2022-10-17T13:22:32;101739.81;;;24.98;49.17
41596;BME280;27283;52.504;13.358;2022-10-17T13:25:06;101742.31;;;24.99;48.84
41596;BME280;27283;52.504;13.358;2022-10-17T13:27:39;101742.19;;;25.06;48.74
41596;BME280;27283;52.504;13.358;2022-10-17T13:30:23;101737.31;;;25.08;48.73
41596;BME280;27283;52.504;13.358;2022-10-17T13:33:00;101745.31;;;25.21;48.75
41596;BME280;27283;52.504;13.358;2022-10-17T13:35:36;101742.56;;;25.21;48.20
41596;BME280;27283;52.504;13.358;2022-10-17T13:38:29;101740.50;;;25.17;48.59
41596;BME280;27283;52.504;13.358;2022-10-17T13:41:10;101736.22;;;25.21;48.24